Terminal Aerodrome Forecast
Issued by NWS

Home | Current Version | Previous Version | Text Only | Print | Product List | Glossary On
Versions: 1 2 3 4 5 6 7 8 9 10 11 12 13 14
738
FTUS46 KLOX 140539
TAFBUR
TAF
KBUR 140539Z 1406/1506 VRB05KT 6SM HZ SKC
     FM140800 VRB03KT P6SM SKC
     FM142300 02008KT P6SM SCT250
     FM150300 VRB03KT P6SM SCT250=

USA.gov is the U.S. government's official web portal to all federal, state and local government web resources and services.